Time;durP1;ratioP1;P1;durP2;ratioP2;P2;SDS_P1;SDS_P2;PMS_P1;PMS_P2;Temp;Humidity;BMP_temperature;BMP_pressure;BME280_temperature;BME280_humidity;BME280_pressure;Samples;Min_cycle;Max_cycle;Signal;HPM_P1;HPM_P2
2022/11/10 00:00:17;;;;;;;13.15;2.90;;;;;;;12.75;100.00;100008.22;5006365;28;20041;-81
2022/11/10 00:02:42;;;;;;;12.23;2.88;;;;;;;12.67;100.00;99994.91;5020806;28;20040;-80
2022/11/10 00:05:09;;;;;;;14.60;2.45;;;;;;;12.78;100.00;100006.97;5020000;28;20040;-78
2022/11/10 00:07:35;;;;;;;4.57;1.90;;;;;;;12.64;100.00;99989.09;4990589;28;20038;-78
2022/11/10 00:10:01;;;;;;;8.60;2.00;;;;;;;12.71;100.00;100004.25;4997107;28;20416;-80
2022/11/10 00:12:26;;;;;;;1558.68;779.60;;;;;;;12.64;100.00;100000.72;5013775;28;20037;-79
2022/11/10 00:17:36;;;;;;;7.63;2.00;;;;;;;12.72;100.00;100024.78;5021341;28;20120;-78
2022/11/10 00:20:03;;;;;;;13.00;2.28;;;;;;;12.70;100.00;100016.09;5025358;28;20135;-80
2022/11/10 00:22:29;;;;;;;16.50;2.20;;;;;;;12.70;100.00;100023.31;5007895;28;20042;-79
2022/11/10 00:24:55;;;;;;;12.90;2.35;;;;;;;12.57;100.00;99999.91;5017835;28;20929;-79
2022/11/10 00:27:21;;;;;;;11.80;2.83;;;;;;;12.61;100.00;100020.03;5017047;28;20025;-79
2022/11/10 00:29:46;;;;;;;11.02;2.60;;;;;;;12.59;100.00;100016.69;5025283;28;20056;-78
2022/11/10 00:32:12;;;;;;;11.90;3.28;;;;;;;12.61;100.00;100020.03;5005520;28;20042;-79
2022/11/10 00:34:37;;;;;;;7.93;2.22;;;;;;;12.59;100.00;100030.19;4986217;28;20091;-81
2022/11/10 00:37:03;;;;;;;12.07;2.42;;;;;;;12.52;100.00;100016.72;5022936;28;20167;-80
2022/11/10 00:39:29;;;;;;;12.43;2.28;;;;;;;12.49;100.00;100021.66;5021808;28;20134;-80
2022/11/10 00:41:55;;;;;;;8.93;2.17;;;;;;;12.45;100.00;100015.84;5009413;28;20300;-78
2022/11/10 00:44:21;;;;;;;4.07;1.35;;;;;;;12.43;100.00;100015.22;5021908;28;20029;-78
2022/11/10 00:46:46;;;;;;;7.90;2.35;;;;;;;12.34;100.00;100016.47;5023215;28;20036;-79
2022/11/10 00:49:12;;;;;;;9.93;2.25;;;;;;;12.29;100.00;100024.34;4998200;28;20069;-79
2022/11/10 00:51:38;;;;;;;5.30;1.65;;;;;;;12.25;100.00;100026.63;5021806;28;20110;-79
2022/11/10 00:54:03;;;;;;;7.80;1.92;;;;;;;12.35;100.00;100034.31;5021741;28;20044;-77
2022/11/10 00:56:32;;;;;;;5.80;1.73;;;;;;;12.38;100.00;100030.38;5020026;28;20036;-77
2022/11/10 00:58:58;;;;;;;6.63;1.63;;;;;;;12.44;100.00;100034.97;5026851;28;20041;-78
2022/11/10 01:01:24;;;;;;;6.18;2.60;;;;;;;12.50;100.00;100031.44;5016752;28;20087;-78
2022/11/10 01:03:53;;;;;;;11.65;3.03;;;;;;;12.48;100.00;100028.09;5015559;28;20040;-79
2022/11/10 01:06:20;;;;;;;6.63;2.08;;;;;;;12.58;100.00;100025.00;5007916;28;20029;-80
2022/11/10 01:08:46;;;;;;;12.45;2.38;;;;;;;12.55;100.00;100023.56;5007120;28;20025;-79
2022/11/10 01:11:18;;;;;;;8.00;1.58;;;;;;;12.54;100.00;100021.88;5017009;28;21154;-79
2022/11/10 01:13:44;;;;;;;13.60;3.13;;;;;;;12.45;100.00;100009.66;5015736;28;20468;-78
2022/11/10 01:16:15;;;;;;;4.97;2.03;;;;;;;12.55;100.00;100026.25;4992198;28;20060;-78
2022/11/10 01:18:41;;;;;;;8.45;2.75;;;;;;;12.52;100.00;100005.91;5016213;28;20021;-81
2022/11/10 01:21:08;;;;;;;6.75;1.70;;;;;;;12.49;100.00;100005.47;5022521;28;20033;-81
2022/11/10 01:23:34;;;;;;;2.90;1.33;;;;;;;12.50;100.00;99997.19;5008214;28;20379;-78
2022/11/10 01:26:02;;;;;;;6.20;2.10;;;;;;;12.50;100.00;99994.50;5020823;28;20030;-80
2022/11/10 01:28:28;;;;;;;10.23;2.15;;;;;;;12.40;100.00;99971.69;4992431;28;20041;-80
2022/11/10 01:30:58;;;;;;;9.55;1.90;;;;;;;12.48;100.00;99972.31;5039386;28;20116;-79
2022/11/10 01:33:24;;;;;;;8.07;1.70;;;;;;;12.52;100.00;99972.75;5004345;28;20044;-80
2022/11/10 01:35:50;;;;;;;8.18;1.98;;;;;;;12.52;100.00;99962.78;5003836;28;20408;-80
2022/11/10 01:38:19;;;;;;;5.50;1.27;;;;;;;12.44;100.00;99946.81;5006844;28;20199;-79
2022/11/10 01:40:45;;;;;;;12.85;2.72;;;;;;;12.45;100.00;99956.53;4986876;28;20117;-80
2022/11/10 01:43:11;;;;;;;6.10;1.38;;;;;;;12.42;100.00;99956.13;5005638;28;20033;-83
2022/11/10 01:45:45;;;;;;;4.13;1.98;;;;;;;12.42;100.00;99961.53;5024390;28;20025;-79
2022/11/10 01:48:18;;;;;;;8.32;1.52;;;;;;;12.45;100.00;99955.72;4998418;28;20041;-80
2022/11/10 01:50:46;;;;;;;9.65;1.75;;;;;;;12.47;100.00;99964.44;5007002;28;20490;-80
2022/11/10 01:53:19;;;;;;;3.17;1.02;;;;;;;12.52;100.00;99970.03;5023694;28;20112;-79
2022/11/10 01:55:46;;;;;;;8.90;2.15;;;;;;;12.44;100.00;99959.47;5008020;28;20029;-79
2022/11/10 01:58:14;;;;;;;8.48;2.63;;;;;;;12.56;100.00;99978.53;4992194;28;20033;-79
2022/11/10 02:00:40;;;;;;;12.75;2.08;;;;;;;12.47;100.00;99961.75;4996133;28;20501;-79
2022/11/10 02:03:14;;;;;;;3.53;1.40;;;;;;;12.69;100.00;99995.53;5020951;28;20088;-79
2022/11/10 02:05:40;;;;;;;5.32;1.42;;;;;;;12.76;100.00;99979.34;5002685;28;20033;-79
2022/11/10 02:08:06;;;;;;;1800.38;256.80;;;;;;;12.79;100.00;99981.63;5001273;28;20112;-80
2022/11/10 02:10:32;;;;;;;8.60;1.77;;;;;;;12.81;100.00;99976.88;5019457;28;20120;-81
2022/11/10 02:12:58;;;;;;;9.75;1.60;;;;;;;12.74;100.00;99968.75;5016773;28;20068;-81
2022/11/10 02:15:24;;;;;;;9.40;1.60;;;;;;;12.66;100.00;99960.88;5024854;28;20025;-82
2022/11/10 02:17:50;;;;;;;11.55;11.13;;;;;;;12.72;100.00;99976.22;5027281;28;20406;-79
2022/11/10 02:20:17;;;;;;;5.40;1.38;;;;;;;12.82;100.00;99991.19;5027724;28;20037;-79
2022/11/10 02:22:43;;;;;;;6.43;1.23;;;;;;;12.84;100.00;99998.03;5013977;28;20510;-81
2022/11/10 02:25:11;;;;;;;3.72;1.50;;;;;;;12.87;100.00;100003.00;5026193;28;20045;-80
2022/11/10 02:27:36;;;;;;;43.17;41.35;;;;;;;12.90;100.00;100002.56;5021141;28;20049;-81
2022/11/10 02:30:03;;;;;;;1.25;0.80;;;;;;;12.96;100.00;100006.28;5024920;28;20048;-81
2022/11/10 02:32:28;;;;;;;2.97;1.23;;;;;;;12.95;100.00;99994.69;5022724;28;20029;-79
2022/11/10 02:34:54;;;;;;;783.15;509.00;;;;;;;12.97;100.00;100008.81;5025081;28;20033;-80
2022/11/10 02:37:20;;;;;;;1.45;0.90;;;;;;;12.96;100.00;99998.19;5055299;28;20269;-80
2022/11/10 02:39:45;;;;;;;115.47;37.55;;;;;;;12.94;100.00;99982.25;5027859;28;20175;-79
2022/11/10 02:42:11;;;;;;;316.60;126.95;;;;;;;13.00;100.00;99988.66;5037654;28;20083;-79
2022/11/10 02:44:38;;;;;;;1508.47;757.03;;;;;;;12.98;100.00;99996.13;5009272;28;20051;-78
2022/11/10 02:47:03;;;;;;;6.47;1.40;;;;;;;12.95;100.00;99993.84;5009147;28;20037;-79
2022/11/10 02:49:29;;;;;;;1.60;0.80;;;;;;;12.90;100.00;99974.75;5026671;28;20033;-77
2022/11/10 02:51:55;;;;;;;1138.10;556.60;;;;;;;12.87;100.00;99967.91;5026006;28;20034;-80
2022/11/10 02:54:20;;;;;;;2.97;0.95;;;;;;;12.77;100.00;99960.25;4991110;28;20041;-84
2022/11/10 02:56:52;;;;;;;3.00;1.23;;;;;;;12.79;100.00;99962.75;5022988;28;20033;-80
2022/11/10 02:59:20;;;;;;;0.63;0.63;;;;;;;12.76;100.00;99950.50;5021785;28;20072;-80
2022/11/10 03:01:45;;;;;;;0.80;0.80;;;;;;;12.68;100.00;99948.03;5025545;28;20033;-81
2022/11/10 03:04:11;;;;;;;6.07;4.43;;;;;;;12.56;100.00;99930.81;4992263;28;20053;-82
2022/11/10 03:06:37;;;;;;;0.80;0.80;;;;;;;12.71;100.00;99953.00;5042074;28;20033;-79
2022/11/10 03:09:02;;;;;;;1.05;0.95;;;;;;;12.77;100.00;99957.56;5020492;28;20063;-80
2022/11/10 03:11:28;;;;;;;3.42;2.45;;;;;;;12.82;100.00;99961.50;5008881;28;20091;-83
2022/11/10 03:13:53;;;;;;;1.70;1.60;;;;;;;12.95;100.00;99961.47;5018960;28;20030;-82
2022/11/10 03:16:19;;;;;;;1.65;1.48;;;;;;;13.02;100.00;99951.50;5023822;28;20049;-82
2022/11/10 03:18:45;;;;;;;2.80;1.38;;;;;;;13.04;100.00;99959.38;5025029;28;20519;-79
2022/11/10 03:21:10;;;;;;;1.15;0.95;;;;;;;13.15;100.00;99973.06;4989535;28;20132;-80
2022/11/10 03:23:36;;;;;;;2.95;1.40;;;;;;;13.03;100.00;99979.31;4997709;28;20107;-82
2022/11/10 03:26:06;;;;;;;3.45;3.05;;;;;;;12.80;100.00;99974.38;5021506;28;20033;-79
2022/11/10 03:28:32;;;;;;;5.38;4.85;;;;;;;12.61;100.00;99971.47;5013650;28;20051;-80
2022/11/10 03:30:57;;;;;;;5.25;4.85;;;;;;;12.51;100.00;99962.97;5040533;28;20377;-79
2022/11/10 03:33:23;;;;;;;46.47;44.75;;;;;;;12.49;100.00;99970.44;5004544;28;20040;-79
2022/11/10 03:35:49;;;;;;;3.22;1.90;;;;;;;12.41;100.00;99968.78;4996527;28;20068;-78
2022/11/10 03:38:14;;;;;;;4.38;1.88;;;;;;;12.48;100.00;99968.78;5005972;28;20388;-79
2022/11/10 03:40:40;;;;;;;3.20;1.40;;;;;;;12.51;100.00;99969.19;4985897;28;20037;-81
2022/11/10 03:43:06;;;;;;;1.92;1.10;;;;;;;12.54;100.00;99947.22;5005558;28;20539;-79
2022/11/10 03:45:31;;;;;;;4.55;1.40;;;;;;;12.64;100.00;99959.44;5028624;28;20033;-81
2022/11/10 03:47:57;;;;;;;7.85;2.13;;;;;;;12.66;100.00;99963.59;5028520;28;20490;-79
2022/11/10 03:50:23;;;;;;;2.35;2.15;;;;;;;12.72;100.00;99961.91;5026000;28;20032;-81
2022/11/10 03:52:48;;;;;;;7.72;3.13;;;;;;;12.83;100.00;99960.44;4991531;28;20053;-80
2022/11/10 03:55:16;;;;;;;7.60;7.05;;;;;;;12.89;100.00;99962.31;5009257;28;20076;-80
2022/11/10 03:57:42;;;;;;;6.85;6.43;;;;;;;12.91;100.00;99950.28;4984265;28;20033;-81
2022/11/10 04:00:09;;;;;;;3.05;2.78;;;;;;;12.97;100.00;99962.09;5015392;28;20035;-80
2022/11/10 04:02:36;;;;;;;3.50;3.30;;;;;;;12.98;100.00;99963.75;5003195;28;20096;-81
2022/11/10 04:10:43;;;;;;;3.97;1.50;;;;;;;12.96;100.00;99957.72;5008649;28;20037;-82
2022/11/10 04:15:54;;;;;;;3.88;3.60;;;;;;;12.90;100.00;99974.75;5019418;28;20148;-79
2022/11/10 04:18:20;;;;;;;6.60;4.55;;;;;;;12.89;100.00;99962.31;5005378;28;20476;-81
2022/11/10 04:20:51;;;;;;;5.40;4.93;;;;;;;12.82;100.00;99954.22;5025349;28;20041;-80
2022/11/10 04:23:26;;;;;;;6.28;5.82;;;;;;;12.83;100.00;99963.16;5057876;28;20029;-81
2022/11/10 04:28:51;;;;;;;12.50;11.82;;;;;;;12.93;100.00;99952.75;5023597;28;20033;-79
2022/11/10 04:31:19;;;;;;;12.07;11.50;;;;;;;12.94;100.00;99946.34;4998989;28;20507;-80
2022/11/10 04:33:45;;;;;;;12.88;12.32;;;;;;;12.96;100.00;99938.84;5009225;28;20036;-79
2022/11/10 04:36:14;;;;;;;13.05;12.25;;;;;;;13.01;100.00;99925.53;4991878;28;20521;-80
2022/11/10 04:38:40;;;;;;;12.55;11.25;;;;;;;13.13;100.00;99940.03;5021698;28;20043;-79
2022/11/10 04:41:06;;;;;;;12.68;11.85;;;;;;;13.12;100.00;99938.38;5003844;28;20427;-81
2022/11/10 04:43:31;;;;;;;437.67;159.15;;;;;;;13.11;100.00;99922.41;5008407;28;20037;-81
2022/11/10 04:45:57;;;;;;;1999.90;999.90;;;;;;;13.15;100.00;99924.47;5018400;28;20091;-82
2022/11/10 04:48:24;;;;;;;642.78;336.13;;;;;;;13.11;100.00;99915.13;5025135;28;20120;-79
2022/11/10 04:50:50;;;;;;;1999.90;999.90;;;;;;;13.11;100.00;99904.34;5008663;28;20041;-80
2022/11/10 04:53:16;;;;;;;223.68;48.38;;;;;;;13.05;100.00;99883.59;5041732;28;20246;-79
2022/11/10 04:55:43;;;;;;;1500.07;251.10;;;;;;;13.19;100.00;99898.69;5011575;28;20534;-79
2022/11/10 04:58:08;;;;;;;2.25;0.85;;;;;;;13.30;100.00;99909.91;5026123;28;20117;-78
2022/11/10 05:00:35;;;;;;;2.17;0.70;;;;;;;13.28;100.00;99914.69;4991240;28;20068;-81
2022/11/10 05:03:02;;;;;;;61.88;54.92;;;;;;;13.07;100.00;99894.16;5008723;28;20391;-78
2022/11/10 05:05:28;;;;;;;1.05;0.70;;;;;;;13.19;100.00;99923.00;5003433;28;20037;-79
2022/11/10 05:07:54;;;;;;;1.23;0.70;;;;;;;13.18;100.00;99921.34;5025050;28;20041;-78
2022/11/10 05:10:20;;;;;;;2.10;0.80;;;;;;;13.17;100.00;99911.56;5011156;28;20120;-79
2022/11/10 05:12:45;;;;;;;3.15;0.90;;;;;;;13.16;100.00;99904.53;5020586;28;20109;-78
2022/11/10 05:15:11;;;;;;;1999.90;999.90;;;;;;;13.12;100.00;99908.69;5026643;28;20060;-79
2022/11/10 05:17:37;;;;;;;3.00;0.77;;;;;;;13.10;100.00;99905.38;5008963;28;20037;-80
2022/11/10 05:20:04;;;;;;;3.80;1.05;;;;;;;13.25;100.00;99897.00;5025803;28;20033;-78
2022/11/10 05:22:29;;;;;;;4.10;1.08;;;;;;;13.32;100.00;99897.84;5025635;28;20033;-78
2022/11/10 05:24:55;;;;;;;3.60;1.20;;;;;;;13.35;100.00;99899.28;5007286;28;20037;-78
2022/11/10 05:27:21;;;;;;;21.52;4.75;;;;;;;13.26;100.00;99882.50;4994409;28;20064;-78
2022/11/10 05:29:46;;;;;;;580.83;83.13;;;;;;;13.37;100.00;99914.22;5026042;28;20037;-80
2022/11/10 05:32:12;;;;;;;1.27;0.80;;;;;;;13.35;100.00;99918.19;5020166;28;20079;-78
2022/11/10 05:34:37;;;;;;;1.38;0.80;;;;;;;13.44;100.00;99913.38;5003472;28;20036;-81
2022/11/10 05:37:03;;;;;;;1.85;0.65;;;;;;;13.44;100.00;99903.38;5024981;28;20041;-79
2022/11/10 05:39:29;;;;;;;2.25;0.93;;;;;;;13.60;100.00;99923.66;5059968;28;20119;-82
2022/11/10 05:41:54;;;;;;;6.20;0.73;;;;;;;13.69;100.00;99924.25;5008730;28;20462;-78
2022/11/10 05:44:20;;;;;;;0.90;0.85;;;;;;;13.76;100.00;99939.38;5027537;28;20438;-80
2022/11/10 05:46:46;;;;;;;0.85;0.50;;;;;;;13.75;100.00;99926.09;5006117;28;20037;-78
2022/11/10 05:49:11;;;;;;;6.82;1.05;;;;;;;13.89;100.00;99937.63;5004430;28;20084;-81
2022/11/10 05:51:37;;;;;;;2.72;0.95;;;;;;;13.90;100.00;99937.44;4986783;28;20026;-81
2022/11/10 05:54:02;;;;;;;3.67;1.02;;;;;;;13.81;100.00;99922.50;5009636;28;20367;-79
2022/11/10 05:56:28;;;;;;;2.92;0.70;;;;;;;13.82;100.00;99919.59;5009116;28;20041;-78
2022/11/10 05:58:54;;;;;;;1.17;0.60;;;;;;;13.86;100.00;99944.31;5024582;28;20033;-79
2022/11/10 06:01:19;;;;;;;0.45;0.45;;;;;;;13.79;100.00;99952.47;5008559;28;20683;-81
2022/11/10 06:03:45;;;;;;;1.27;0.55;;;;;;;13.83;100.00;99959.06;5027527;28;20044;-79
2022/11/10 06:06:10;;;;;;;0.30;0.30;;;;;;;13.76;100.00;99960.16;5021949;28;21170;-77
2022/11/10 06:08:36;;;;;;;0.52;0.52;;;;;;;13.59;100.00;99962.53;5010997;28;20037;-80
2022/11/10 06:11:02;;;;;;;0.40;0.40;;;;;;;13.45;100.00;99959.06;5003325;28;20047;-83
2022/11/10 06:13:28;;;;;;;3.20;0.40;;;;;;;13.35;100.00;99958.69;5007349;28;20239;-81
2022/11/10 06:15:53;;;;;;;0.40;0.40;;;;;;;13.31;100.00;99942.09;5059681;28;20124;-80
2022/11/10 06:18:19;;;;;;;0.50;0.50;;;;;;;13.31;100.00;99949.34;4991493;28;20113;-80
2022/11/10 06:20:47;;;;;;;0.40;0.40;;;;;;;13.31;100.00;99952.91;5025893;28;20120;-80
2022/11/10 06:23:13;;;;;;;0.30;0.30;;;;;;;13.36;100.00;99950.38;5019635;28;20046;-81
2022/11/10 06:25:43;;;;;;;3.03;0.82;;;;;;;13.51;100.00;99965.47;5025562;28;20095;-80
2022/11/10 06:28:09;;;;;;;0.50;0.50;;;;;;;13.49;100.00;99971.09;5022511;28;20048;-80
2022/11/10 06:30:36;;;;;;;2.30;0.40;;;;;;;13.56;100.00;99992.69;5027543;28;20029;-80
2022/11/10 06:33:02;;;;;;;0.60;0.60;;;;;;;13.60;100.00;99997.44;4994235;28;20052;-80
2022/11/10 06:35:28;;;;;;;1.08;0.60;;;;;;;13.57;100.00;99980.81;5014291;28;20029;-80
2022/11/10 06:38:04;;;;;;;11.40;0.85;;;;;;;13.70;100.00;99969.13;5007425;28;20502;-79
2022/11/10 06:40:30;;;;;;;1.60;1.50;;;;;;;13.71;100.00;99970.81;5020751;28;20034;-79
2022/11/10 06:42:56;;;;;;;0.45;0.45;;;;;;;13.63;100.00;99967.31;4999713;28;20033;-80
2022/11/10 06:45:22;;;;;;;1.08;0.52;;;;;;;13.60;100.00;99958.78;5020662;28;20040;-79
2022/11/10 06:47:48;;;;;;;2.58;0.65;;;;;;;13.34;100.00;99938.16;5002998;28;20415;-80
2022/11/10 06:50:14;;;;;;;0.38;0.38;;;;;;;13.24;100.00;99943.13;5011509;28;20033;-79
2022/11/10 06:52:39;;;;;;;0.70;0.52;;;;;;;13.14;100.00;99955.19;5017129;28;20033;-81
2022/11/10 06:55:05;;;;;;;2.25;0.80;;;;;;;13.04;100.00;99960.19;5000413;28;20073;-81
2022/11/10 06:57:38;;;;;;;0.80;0.80;;;;;;;12.93;100.00;99948.19;5005914;28;20041;-78
2022/11/10 07:00:04;;;;;;;3.15;1.65;;;;;;;13.05;100.00;99961.06;5002363;28;20112;-79
2022/11/10 07:02:30;;;;;;;0.40;0.40;;;;;;;13.11;100.00;99947.53;5023741;28;20041;-79
2022/11/10 07:04:56;;;;;;;0.95;0.60;;;;;;;13.16;100.00;99946.88;5009728;28;20076;-80
2022/11/10 07:07:22;;;;;;;2.70;0.65;;;;;;;13.16;100.00;99936.09;5021882;28;20428;-79
2022/11/10 07:09:47;;;;;;;1.00;0.55;;;;;;;13.05;100.00;99931.38;5039901;28;20472;-79
2022/11/10 07:12:13;;;;;;;0.70;0.60;;;;;;;13.20;100.00;99959.75;5009158;28;20036;-80
2022/11/10 07:14:38;;;;;;;0.40;0.40;;;;;;;13.12;100.00;99956.44;5025367;28;20034;-79
2022/11/10 07:17:04;;;;;;;0.60;0.60;;;;;;;13.15;100.00;99959.56;5029010;28;20033;-77
2022/11/10 07:19:31;;;;;;;1.75;0.80;;;;;;;13.19;100.00;99962.66;5019940;28;20021;-80
2022/11/10 07:21:57;;;;;;;0.50;0.50;;;;;;;13.17;100.00;99959.34;5020081;28;20155;-81
2022/11/10 07:24:22;;;;;;;0.50;0.50;;;;;;;13.22;100.00;99978.44;5024659;28;20041;-81
2022/11/10 07:26:48;;;;;;;1.38;0.50;;;;;;;13.29;100.00;99975.75;5002618;28;20037;-79
2022/11/10 07:29:14;;;;;;;0.60;0.60;;;;;;;13.29;100.00;99967.66;4995508;28;20483;-81
2022/11/10 07:31:40;;;;;;;1.13;0.50;;;;;;;13.33;100.00;99961.59;5014956;28;20105;-80
2022/11/10 07:34:05;;;;;;;4.07;0.90;;;;;;;13.37;100.00;99975.50;4987989;28;20029;-82
2022/11/10 07:36:31;;;;;;;1.90;0.57;;;;;;;13.38;100.00;99960.97;4992813;28;20034;-81
2022/11/10 07:38:57;;;;;;;1.13;0.75;;;;;;;13.49;100.00;99968.38;5025578;28;20048;-78
2022/11/10 07:41:22;;;;;;;0.70;0.70;;;;;;;13.59;100.00;99959.84;5029095;28;20400;-79
2022/11/10 07:43:48;;;;;;;2.58;1.05;;;;;;;13.67;100.00;99962.28;5005743;28;20056;-78
2022/11/10 07:46:13;;;;;;;3.97;1.02;;;;;;;13.71;100.00;99968.94;5003638;28;20112;-80
2022/11/10 07:48:39;;;;;;;1.45;0.60;;;;;;;13.70;100.00;99961.84;5022801;28;20104;-81
2022/11/10 07:51:05;;;;;;;1.55;0.90;;;;;;;13.80;100.00;99972.19;5002709;28;20063;-78
2022/11/10 07:53:30;;;;;;;0.68;0.68;;;;;;;13.84;100.00;99962.63;5020489;28;20061;-79
2022/11/10 07:55:57;;;;;;;0.40;0.40;;;;;;;13.91;100.00;99976.91;4991980;28;20460;-79
2022/11/10 07:58:23;;;;;;;2.20;0.90;;;;;;;13.93;100.00;99974.00;5026259;28;20037;-79
2022/11/10 08:00:48;;;;;;;2.10;0.50;;;;;;;13.92;100.00;99959.66;4988888;28;20033;-79
2022/11/10 08:03:19;;;;;;;0.70;0.70;;;;;;;13.99;100.00;99979.34;5026198;28;20392;-80
2022/11/10 08:05:44;;;;;;;0.50;0.50;;;;;;;13.94;100.00;99967.53;5024414;28;20041;-81
2022/11/10 08:08:11;;;;;;;0.52;0.40;;;;;;;13.97;100.00;99976.06;5009785;28;20349;-80
2022/11/10 08:10:38;;;;;;;0.68;0.55;;;;;;;13.91;100.00;99968.81;5022369;28;20198;-79
2022/11/10 08:13:06;;;;;;;2.05;1.10;;;;;;;14.01;100.00;99961.06;5011604;28;20128;-79
2022/11/10 08:15:33;;;;;;;0.88;0.88;;;;;;;13.98;100.00;99975.00;4987904;28;20045;-80
2022/11/10 08:18:20;;;;;;;1.65;0.80;;;;;;;14.09;100.00;99987.00;5017518;28;20471;-82
2022/11/10 08:20:46;;;;;;;0.85;0.73;;;;;;;14.10;100.00;99983.22;5022021;28;20112;-79
2022/11/10 08:23:12;;;;;;;2.45;0.75;;;;;;;14.06;100.00;99980.16;5025860;28;20188;-79
2022/11/10 08:25:38;;;;;;;0.90;0.70;;;;;;;14.22;100.00;99986.91;5023818;28;20034;-79
2022/11/10 08:28:05;;;;;;;1.27;0.63;;;;;;;14.26;100.00;99992.69;5006462;28;20474;-81
2022/11/10 08:30:31;;;;;;;0.40;0.40;;;;;;;14.33;100.00;99993.47;5024539;28;20475;-78
2022/11/10 08:33:00;;;;;;;0.47;0.40;;;;;;;14.37;100.00;99985.75;5006672;28;20103;-78
2022/11/10 08:35:28;;;;;;;0.50;0.45;;;;;;;14.47;100.00;99991.50;5019819;28;20083;-80
2022/11/10 08:37:54;;;;;;;0.65;0.65;;;;;;;14.52;100.00;99987.13;5026916;28;20118;-81
2022/11/10 08:40:21;;;;;;;1.27;0.80;;;;;;;14.54;99.65;99983.38;5031241;28;20037;-78
2022/11/10 08:42:47;;;;;;;2.00;0.60;;;;;;;14.65;98.50;99977.25;5008238;28;20038;-81
2022/11/10 08:45:13;;;;;;;5.13;4.90;;;;;;;14.78;97.55;99987.94;4991969;28;20098;-80
2022/11/10 08:47:39;;;;;;;1999.90;999.90;;;;;;;14.79;97.00;100000.44;5025121;28;20490;-80
2022/11/10 08:50:06;;;;;;;1999.90;999.90;;;;;;;14.86;96.46;99997.66;5020019;28;20061;-79
2022/11/10 08:52:32;;;;;;;35.95;16.02;;;;;;;15.00;95.45;100011.91;5023537;28;20116;-80
2022/11/10 08:54:58;;;;;;;1999.90;999.90;;;;;;;15.15;93.65;100015.09;4991116;28;20594;-78
2022/11/10 08:57:24;;;;;;;2.38;1.35;;;;;;;15.25;93.41;100018.09;5002608;28;20045;-78
2022/11/10 08:59:49;;;;;;;226.68;113.47;;;;;;;15.32;92.05;99994.50;5018627;28;20037;-81
2022/11/10 09:02:17;;;;;;;236.25;102.47;;;;;;;15.34;91.12;100005.91;4984284;28;20087;-79
2022/11/10 09:04:43;;;;;;;628.72;373.10;;;;;;;15.45;90.55;100008.91;4986174;28;20056;-80
2022/11/10 09:07:08;;;;;;;1999.90;999.90;;;;;;;15.50;89.76;99996.34;5021668;28;20467;-81
2022/11/10 09:09:34;;;;;;;6.28;1.30;;;;;;;15.72;87.60;100018.44;5038397;28;20636;-86
2022/11/10 09:11:59;;;;;;;6.32;1.42;;;;;;;16.01;85.57;100002.41;5029025;28;20087;-88
2022/11/10 09:14:25;;;;;;;3.83;0.82;;;;;;;16.16;84.26;100019.06;4996046;28;20029;-86
2022/11/10 09:16:51;;;;;;;5.47;1.67;;;;;;;16.01;85.16;100005.13;5030172;28;20042;-88
2022/11/10 09:19:16;;;;;;;6.18;2.05;;;;;;;15.89;85.99;100010.50;5027326;28;20037;-86
2022/11/10 09:21:42;;;;;;;2.45;1.33;;;;;;;15.77;86.24;100006.88;5057992;28;20029;-88
2022/11/10 09:24:08;;;;;;;1.88;0.95;;;;;;;15.66;87.01;100005.75;5010870;28;20475;-87
2022/11/10 09:26:33;;;;;;;4.35;1.40;;;;;;;15.58;87.75;100015.00;4998364;28;20033;-88
2022/11/10 09:28:59;;;;;;;3.67;1.00;;;;;;;15.63;87.24;99989.94;4996926;28;20033;-86
2022/11/10 09:31:24;;;;;;;7.30;1.48;;;;;;;15.77;87.38;99999.59;5009451;28;20049;-86
2022/11/10 09:33:50;;;;;;;2.70;1.38;;;;;;;15.90;86.75;100001.28;5025417;28;20380;-86
2022/11/10 09:36:16;;;;;;;4.20;2.10;;;;;;;15.94;86.41;100009.81;4994833;28;20087;-87
2022/11/10 09:38:42;;;;;;;6.50;1.95;;;;;;;15.89;86.27;100004.25;5006973;28;20485;-88
2022/11/10 09:41:10;;;;;;;4.70;1.40;;;;;;;15.88;86.06;100005.28;5021851;28;20076;-88
2022/11/10 09:44:16;;;;;;;5.35;1.45;;;;;;;16.05;85.39;100011.72;5010584;28;20052;-87
2022/11/10 09:46:45;;;;;;;8.27;1.75;;;;;;;16.00;85.05;99993.44;5002832;28;20498;-88
2022/11/10 09:49:29;;;;;;;4.43;1.58;;;;;;;16.18;84.23;99997.16;4989508;28;20025;-87
2022/11/10 09:51:56;;;;;;;8.75;2.40;;;;;;;16.23;84.27;100000.81;5025944;28;20373;-87
2022/11/10 09:54:37;;;;;;;6.40;2.25;;;;;;;16.49;83.33;100017.78;5010746;28;20036;-88
2022/11/10 09:57:05;;;;;;;4.35;1.55;;;;;;;16.79;81.67;100009.56;5007806;28;20495;-86
2022/11/10 09:59:32;;;;;;;5.68;1.92;;;;;;;17.48;78.36;99990.75;5057846;28;20033;-87
2022/11/10 10:02:23;;;;;;;5.80;1.58;;;;;;;18.21;73.57;100010.16;4995923;28;20132;-87
2022/11/10 10:05:33;;;;;;;9.60;1.67;;;;;;;18.53;70.70;100012.34;5004629;28;20034;-87
2022/11/10 10:08:07;;;;;;;2.35;1.40;;;;;;;19.21;68.87;100024.88;5010874;28;20060;-87
2022/11/10 10:10:43;;;;;;;7.90;2.53;;;;;;;20.14;65.08;100010.50;5002162;28;20042;-87
2022/11/10 10:13:44;;;;;;;4.03;1.52;;;;;;;21.14;60.66;100026.34;5021864;28;20039;-86
2022/11/10 10:16:17;;;;;;;7.15;1.85;;;;;;;21.71;56.78;100022.88;5024362;28;20403;-88
2022/11/10 10:18:58;;;;;;;4.30;1.30;;;;;;;21.20;57.29;100028.06;5019355;28;20170;-88
2022/11/10 10:21:58;;;;;;;5.65;1.80;;;;;;;20.13;61.73;100015.09;5018873;28;20037;-88
2022/11/10 10:24:26;;;;;;;7.78;2.10;;;;;;;19.90;63.45;100023.56;5015666;28;20048;-87
2022/11/10 10:26:53;;;;;;;9.63;3.10;;;;;;;19.94;63.03;100005.63;5024817;28;20550;-86
2022/11/10 10:29:22;;;;;;;7.13;1.92;;;;;;;19.12;65.54;99980.03;5010448;28;20184;-87
2022/11/10 10:31:52;;;;;;;6.75;1.85;;;;;;;20.02;62.90;100007.91;5004081;28;20670;-88
2022/11/10 10:34:25;;;;;;;7.20;2.03;;;;;;;20.71;60.59;100000.91;5012510;28;20044;-87
2022/11/10 10:36:51;;;;;;;5.40;1.98;;;;;;;20.96;59.43;99992.91;5009920;28;20086;-87
2022/11/10 10:39:29;;;;;;;6.75;2.00;;;;;;;21.84;56.56;100019.63;4998420;28;20045;-87
2022/11/10 10:41:56;;;;;;;9.10;2.65;;;;;;;22.07;54.97;100014.75;5017982;28;20131;-87
2022/11/10 10:44:21;;;;;;;3.55;2.08;;;;;;;21.65;56.14;100023.94;5049136;28;20086;-88
2022/11/10 10:46:59;;;;;;;7.32;2.00;;;;;;;20.86;58.80;100020.97;5026335;28;20488;-87
2022/11/10 10:49:29;;;;;;;25.88;2.90;;;;;;;20.74;59.90;100014.88;5010729;28;20471;-89
2022/11/10 10:52:08;;;;;;;5.78;1.77;;;;;;;21.21;58.66;100016.00;5004455;28;20106;-88
2022/11/10 11:06:02;;;;;;;6.95;1.92;;;;;;;18.00;72.69;100023.34;5029943;28;20048;-87
2022/11/10 11:08:27;;;;;;;6.10;1.92;;;;;;;17.51;75.77;100033.75;5004755;28;20029;-88
2022/11/10 11:10:53;;;;;;;7.50;1.70;;;;;;;17.14;78.38;100020.44;5023138;28;20398;-89
2022/11/10 11:13:25;;;;;;;8.52;2.45;;;;;;;16.77;80.00;100000.81;5027886;28;20033;-89
2022/11/10 11:16:06;;;;;;;7.32;2.35;;;;;;;16.68;81.90;99992.19;5010116;28;20068;-88
2022/11/10 11:18:33;;;;;;;6.97;1.45;;;;;;;16.63;81.67;100000.19;4990993;28;20037;-88
2022/11/10 11:20:58;;;;;;;5.18;1.83;;;;;;;16.86;80.55;100009.47;5021497;28;20037;-88
2022/11/10 11:23:37;;;;;;;7.18;2.28;;;;;;;18.01;75.67;100016.00;5006564;28;20038;-86
2022/11/10 11:26:21;;;;;;;2.03;1.30;;;;;;;18.21;74.01;100031.91;5008037;28;22058;-89
2022/11/10 11:28:57;;;;;;;7.43;1.90;;;;;;;17.65;75.09;100009.00;5005457;28;21623;-88
2022/11/10 11:31:44;;;;;;;6.38;1.77;;;;;;;17.12;78.54;100041.59;4994601;28;20033;-89
2022/11/10 11:34:23;;;;;;;3.45;1.70;;;;;;;16.70;80.79;100027.25;5015381;28;20025;-89
2022/11/10 11:37:03;;;;;;;4.85;1.58;;;;;;;16.56;82.12;100025.78;5035673;28;20495;-88
2022/11/10 11:40:19;;;;;;;2.90;1.08;;;;;;;16.48;82.46;100010.69;5004296;28;20056;-87
2022/11/10 11:43:17;;;;;;;7.05;1.50;;;;;;;16.42;82.54;100006.19;4985020;28;20188;-88
2022/11/10 11:45:52;;;;;;;4.15;1.55;;;;;;;16.41;82.76;100005.38;4980774;28;20049;-89
2022/11/10 11:48:27;;;;;;;7.57;1.70;;;;;;;16.41;82.74;100005.38;5005046;28;20199;-88
2022/11/10 11:51:04;;;;;;;5.70;1.35;;;;;;;16.39;82.61;100006.66;5005106;28;20059;-88